Time;durP1;ratioP1;P1;durP2;ratioP2;P2;SDS_P1;SDS_P2;PMS_P1;PMS_P2;Temp;Humidity;BMP_temperature;BMP_pressure;BME280_temperature;BME280_humidity;BME280_pressure;Samples;Min_cycle;Max_cycle;Signal;HPM_P1;HPM_P2
2021/12/08 00:00:22;;;;;;;10.13;1.63;;;5.20;94.10;;;;;;5047743;28;20021;-65
2021/12/08 00:02:48;;;;;;;9.00;1.33;;;5.20;94.20;;;;;;5050878;28;20031;-65
2021/12/08 00:05:17;;;;;;;11.25;1.30;;;5.20;94.10;;;;;;5036552;28;20029;-65
2021/12/08 00:07:45;;;;;;;11.93;1.60;;;5.30;94.60;;;;;;5049993;28;20023;-65
2021/12/08 00:15:41;;;;;;;9.90;1.30;;;5.30;94.00;;;;;;5036235;28;20523;-64
2021/12/08 00:18:10;;;;;;;9.35;1.48;;;5.30;93.80;;;;;;5032668;28;20040;-65
2021/12/08 00:20:37;;;;;;;10.93;1.70;;;5.20;93.90;;;;;;5040059;28;20108;-65
2021/12/08 00:23:05;;;;;;;11.88;1.58;;;5.20;93.90;;;;;;5049024;28;20035;-65
2021/12/08 00:25:32;;;;;;;11.63;1.45;;;5.10;93.90;;;;;;5040204;28;20118;-64
2021/12/08 00:27:59;;;;;;;6.97;1.30;;;5.10;94.00;;;;;;5036630;28;20020;-65
2021/12/08 00:30:26;;;;;;;11.68;1.20;;;5.10;94.00;;;;;;5035107;28;20041;-65
2021/12/08 00:32:53;;;;;;;10.45;1.17;;;5.10;94.00;;;;;;5033708;28;20014;-65
2021/12/08 00:35:19;;;;;;;8.60;1.23;;;5.00;93.90;;;;;;5044536;28;20028;-65
2021/12/08 00:37:45;;;;;;;11.50;1.38;;;5.10;93.80;;;;;;5048998;28;20017;-65
2021/12/08 00:40:13;;;;;;;10.35;1.85;;;5.10;93.80;;;;;;5042695;28;20095;-65
2021/12/08 00:42:40;;;;;;;11.32;1.50;;;5.10;93.70;;;;;;5036186;28;20081;-64
2021/12/08 00:45:08;;;;;;;9.00;1.15;;;5.10;93.60;;;;;;5032679;28;20036;-65
2021/12/08 00:47:34;;;;;;;10.15;1.50;;;5.20;93.60;;;;;;5035271;28;20404;-65
2021/12/08 00:50:00;;;;;;;11.45;1.55;;;5.30;93.60;;;;;;5044000;28;20563;-65
2021/12/08 00:52:28;;;;;;;10.38;1.65;;;5.30;93.60;;;;;;5040824;28;20117;-65
2021/12/08 00:54:55;;;;;;;10.55;1.45;;;5.30;93.60;;;;;;5035951;28;20029;-65
2021/12/08 00:57:22;;;;;;;10.65;1.40;;;5.40;93.60;;;;;;5037407;28;20020;-65
2021/12/08 00:59:48;;;;;;;12.25;1.45;;;5.50;93.40;;;;;;5033382;28;20030;-65
2021/12/08 01:02:14;;;;;;;11.13;1.33;;;5.50;93.30;;;;;;5036281;28;20021;-64
2021/12/08 01:04:40;;;;;;;12.43;1.92;;;5.50;93.30;;;;;;5036241;28;20087;-65
2021/12/08 01:07:06;;;;;;;10.98;1.65;;;5.60;93.10;;;;;;5035578;28;20770;-65
2021/12/08 01:09:33;;;;;;;4.75;1.05;;;5.60;93.10;;;;;;5035462;28;20455;-64
2021/12/08 01:12:02;;;;;;;5.72;1.20;;;5.70;92.90;;;;;;5035266;28;20044;-65
2021/12/08 01:14:32;;;;;;;5.40;0.98;;;5.70;92.70;;;;;;5050404;28;20051;-65
2021/12/08 01:16:58;;;;;;;8.30;1.38;;;5.70;92.50;;;;;;5046579;28;20099;-64
2021/12/08 01:19:24;;;;;;;4.63;0.98;;;5.70;92.40;;;;;;5042825;28;20116;-65
2021/12/08 01:21:51;;;;;;;5.30;0.80;;;5.70;92.00;;;;;;5051663;28;20056;-65
2021/12/08 01:24:17;;;;;;;6.75;1.00;;;5.80;92.10;;;;;;5060975;28;20033;-65
2021/12/08 01:26:42;;;;;;;3.58;0.60;;;5.80;92.20;;;;;;5033017;28;20021;-64
2021/12/08 01:29:09;;;;;;;2.80;0.50;;;5.80;92.00;;;;;;5035844;28;20488;-65
2021/12/08 01:31:39;;;;;;;4.45;0.73;;;5.70;91.50;;;;;;5035307;28;20038;-65
2021/12/08 01:34:05;;;;;;;5.80;0.60;;;5.80;91.60;;;;;;5035965;28;20025;-65
2021/12/08 01:36:31;;;;;;;3.55;0.55;;;5.80;91.50;;;;;;5034480;28;20059;-64
2021/12/08 01:38:57;;;;;;;3.35;0.60;;;5.80;91.50;;;;;;5042563;28;20033;-65
2021/12/08 01:41:24;;;;;;;4.88;0.50;;;5.80;91.10;;;;;;5035286;28;20507;-65
2021/12/08 01:46:36;;;;;;;4.35;0.60;;;5.90;91.10;;;;;;5040969;28;20186;-64
2021/12/08 01:49:04;;;;;;;7.38;0.70;;;5.90;91.30;;;;;;5043588;28;20049;-64
2021/12/08 01:51:30;;;;;;;5.45;0.65;;;5.90;91.30;;;;;;5034491;28;20040;-65
2021/12/08 01:54:00;;;;;;;5.35;0.98;;;5.90;91.90;;;;;;5033101;28;20112;-65
2021/12/08 01:56:26;;;;;;;5.82;0.65;;;5.90;91.50;;;;;;5050620;28;20104;-65
2021/12/08 01:58:52;;;;;;;7.03;1.02;;;5.90;91.90;;;;;;5041134;28;20104;-65
2021/12/08 02:01:21;;;;;;;7.50;0.70;;;5.90;91.70;;;;;;5046127;28;20044;-65
2021/12/08 02:03:47;;;;;;;3.42;0.40;;;5.80;91.60;;;;;;5039171;28;20107;-65
2021/12/08 02:06:15;;;;;;;2.97;0.60;;;5.80;91.40;;;;;;5033686;28;20021;-65
2021/12/08 02:08:41;;;;;;;5.55;0.63;;;5.80;91.50;;;;;;5053340;28;20028;-65
2021/12/08 02:11:08;;;;;;;4.72;0.70;;;5.70;91.40;;;;;;5044614;28;20033;-65
2021/12/08 02:13:38;;;;;;;3.65;0.50;;;5.70;91.10;;;;;;5038225;28;20101;-65
2021/12/08 02:16:08;;;;;;;4.78;0.68;;;5.60;91.50;;;;;;5038881;28;20056;-65
2021/12/08 02:18:34;;;;;;;5.37;0.77;;;5.60;91.40;;;;;;5046212;28;20021;-65
2021/12/08 02:21:04;;;;;;;8.50;0.80;;;5.60;91.60;;;;;;5046579;28;20284;-65
2021/12/08 02:23:33;;;;;;;4.55;0.75;;;5.50;91.90;;;;;;5049713;28;20624;-65
2021/12/08 02:25:59;;;;;;;3.50;0.65;;;5.50;91.90;;;;;;5049019;28;20472;-65
2021/12/08 02:28:25;;;;;;;6.03;0.95;;;5.40;92.10;;;;;;5045127;28;20024;-65
2021/12/08 02:30:58;;;;;;;6.00;0.63;;;5.40;92.20;;;;;;5047207;28;20051;-65
2021/12/08 02:49:45;;;;;;;6.20;0.80;;;4.90;93.20;;;;;;4980468;28;20050;-65
2021/12/08 02:52:14;;;;;;;5.88;0.75;;;4.90;93.30;;;;;;4986327;28;20041;-64
2021/12/08 02:54:48;;;;;;;7.75;0.80;;;4.80;93.40;;;;;;4990222;28;20038;-65
2021/12/08 02:57:16;;;;;;;7.55;0.95;;;4.80;93.50;;;;;;4999575;28;20069;-65
2021/12/08 02:59:43;;;;;;;6.20;0.90;;;4.80;93.60;;;;;;4991160;28;20105;-65
2021/12/08 03:02:09;;;;;;;6.28;0.80;;;4.70;93.60;;;;;;4989145;28;20521;-65
2021/12/08 03:04:35;;;;;;;8.63;1.20;;;4.70;93.70;;;;;;4986969;28;20494;-65
2021/12/08 03:07:02;;;;;;;9.23;1.38;;;4.70;93.70;;;;;;4987934;28;20076;-64
2021/12/08 03:09:28;;;;;;;6.30;0.80;;;4.70;93.70;;;;;;4988712;28;20089;-65
2021/12/08 03:11:57;;;;;;;5.55;0.80;;;4.70;93.70;;;;;;4972212;28;20062;-65
2021/12/08 03:14:25;;;;;;;7.85;1.17;;;4.60;93.70;;;;;;4990453;28;20030;-64
2021/12/08 03:16:55;;;;;;;13.55;1.23;;;4.70;93.80;;;;;;4979263;28;20065;-64
2021/12/08 03:19:23;;;;;;;7.18;0.90;;;4.60;93.90;;;;;;4978152;28;20062;-65
2021/12/08 03:21:49;;;;;;;5.88;1.00;;;4.60;93.90;;;;;;4994432;28;20031;-65
2021/12/08 03:24:27;;;;;;;4.88;0.77;;;4.50;93.90;;;;;;5023386;28;20029;-65
2021/12/08 03:27:07;;;;;;;9.30;0.90;;;4.50;93.90;;;;;;5042305;28;20029;-65
2021/12/08 03:32:17;;;;;;;9.73;1.08;;;4.50;94.00;;;;;;5047557;28;20342;-64
2021/12/08 03:34:52;;;;;;;4.10;0.60;;;4.50;94.00;;;;;;5039928;28;20566;-64
2021/12/08 03:37:30;;;;;;;3.65;0.70;;;4.40;93.90;;;;;;5046350;28;20388;-65
2021/12/08 03:39:58;;;;;;;6.53;0.80;;;4.40;94.30;;;;;;5048011;28;20057;-65
2021/12/08 03:42:26;;;;;;;8.30;1.08;;;4.40;94.00;;;;;;5049359;28;20021;-64
2021/12/08 03:44:56;;;;;;;10.57;1.05;;;4.40;93.90;;;;;;5047205;28;20040;-64
2021/12/08 03:47:25;;;;;;;7.40;1.00;;;4.40;94.00;;;;;;5050627;28;20021;-64
2021/12/08 03:49:51;;;;;;;5.75;0.98;;;4.40;94.00;;;;;;5048948;28;20048;-65
2021/12/08 03:52:17;;;;;;;8.52;0.85;;;4.40;94.10;;;;;;5049653;28;20037;-64
2021/12/08 03:54:43;;;;;;;9.23;1.10;;;4.30;94.10;;;;;;5047331;28;20021;-64
2021/12/08 03:57:09;;;;;;;6.95;1.00;;;4.30;94.40;;;;;;5037040;28;20033;-64
2021/12/08 03:59:35;;;;;;;7.15;1.15;;;4.30;94.00;;;;;;5051564;28;20053;-64
2021/12/08 04:02:01;;;;;;;8.30;1.13;;;4.30;94.50;;;;;;5038905;28;20594;-65
2021/12/08 04:04:29;;;;;;;5.72;0.80;;;4.30;94.10;;;;;;5048277;28;20127;-65
2021/12/08 04:07:02;;;;;;;7.55;0.80;;;4.30;94.20;;;;;;5047822;28;20047;-64
2021/12/08 04:09:36;;;;;;;5.28;0.90;;;4.20;94.10;;;;;;5049974;28;20037;-64
2021/12/08 04:12:02;;;;;;;6.75;1.08;;;4.20;94.20;;;;;;5048622;28;20037;-65
2021/12/08 04:14:32;;;;;;;8.07;0.80;;;4.20;94.30;;;;;;5052127;28;20033;-65
2021/12/08 04:17:12;;;;;;;6.75;0.95;;;4.10;94.20;;;;;;5049970;28;20105;-64
2021/12/08 04:19:39;;;;;;;8.18;0.90;;;4.10;94.20;;;;;;5039660;28;20392;-65
2021/12/08 04:22:21;;;;;;;6.05;1.05;;;4.10;94.20;;;;;;5040541;28;20024;-65
2021/12/08 04:24:49;;;;;;;7.43;0.95;;;4.10;94.20;;;;;;5046219;28;20420;-65
2021/12/08 04:27:24;;;;;;;5.72;0.90;;;4.10;94.30;;;;;;5041976;28;20104;-64
2021/12/08 04:29:50;;;;;;;5.90;0.82;;;4.10;94.20;;;;;;5049445;28;20526;-65
2021/12/08 04:32:20;;;;;;;5.13;0.80;;;4.10;94.20;;;;;;5038623;28;20021;-65
2021/12/08 04:34:50;;;;;;;5.85;0.90;;;4.10;94.20;;;;;;5038172;28;20029;-65
2021/12/08 04:37:26;;;;;;;10.32;1.33;;;4.20;94.20;;;;;;5041356;28;20040;-65
2021/12/08 04:41:02;;;;;;;9.93;1.20;;;4.10;94.10;;;;;;5050458;28;20571;-65
2021/12/08 04:45:42;;;;;;;9.32;1.00;;;4.10;94.10;;;;;;5049340;28;20037;-64
2021/12/08 04:51:16;;;;;;;8.50;1.00;;;4.10;94.20;;;;;;5033111;28;20463;-64
2021/12/08 05:00:18;;;;;;;7.28;0.90;;;4.10;94.10;;;;;;5049275;28;20090;-64
2021/12/08 05:02:25;;;;;;;5.57;0.98;;;4.10;94.10;;;;;;5053164;28;20044;-64
2021/12/08 05:07:36;;;;;;;5.25;0.90;;;4.10;93.90;;;;;;5042164;28;20522;-65
2021/12/08 05:10:14;;;;;;;8.73;1.00;;;4.10;94.00;;;;;;5045345;28;20106;-65
2021/12/08 05:12:40;;;;;;;5.65;0.93;;;4.10;93.90;;;;;;5046659;28;20021;-65
2021/12/08 05:15:21;;;;;;;9.30;1.00;;;4.10;93.90;;;;;;5031609;28;20043;-65
2021/12/08 05:18:04;;;;;;;5.55;0.80;;;4.00;93.90;;;;;;5047160;28;20042;-65
2021/12/08 05:20:41;;;;;;;11.00;1.15;;;4.00;93.90;;;;;;5039674;28;20514;-65
2021/12/08 05:23:22;;;;;;;8.02;0.82;;;4.00;94.00;;;;;;5049966;28;20109;-65
2021/12/08 05:25:48;;;;;;;4.38;0.82;;;4.00;94.00;;;;;;5043029;28;20588;-64
2021/12/08 05:28:20;;;;;;;5.65;0.88;;;4.00;94.10;;;;;;5046952;28;20500;-64
2021/12/08 05:30:54;;;;;;;6.53;0.80;;;4.00;94.10;;;;;;5045443;28;20051;-65
2021/12/08 05:33:22;;;;;;;6.50;1.00;;;4.00;94.20;;;;;;5035376;28;20106;-65
2021/12/08 05:35:48;;;;;;;6.38;1.02;;;4.00;94.10;;;;;;5049674;28;20033;-64
2021/12/08 05:38:16;;;;;;;3.90;0.80;;;4.00;94.20;;;;;;5054100;28;20051;-65
2021/12/08 05:40:58;;;;;;;12.95;1.25;;;3.90;94.00;;;;;;5045547;28;20511;-65
2021/12/08 05:43:24;;;;;;;6.78;0.77;;;3.90;94.10;;;;;;5040711;28;20017;-65
2021/12/08 05:45:51;;;;;;;8.52;1.15;;;3.90;94.00;;;;;;5037011;28;20029;-65
2021/12/08 05:48:19;;;;;;;8.38;1.15;;;3.90;94.10;;;;;;5051699;28;20028;-65
2021/12/08 05:50:54;;;;;;;8.82;1.13;;;3.90;94.10;;;;;;5035609;28;20044;-65
2021/12/08 05:53:23;;;;;;;5.55;0.80;;;3.90;94.00;;;;;;5048639;28;20025;-65
2021/12/08 05:55:50;;;;;;;5.78;1.23;;;3.80;94.00;;;;;;5043138;28;20385;-65
2021/12/08 05:58:19;;;;;;;8.38;0.90;;;3.90;94.10;;;;;;5045279;28;20083;-65
2021/12/08 06:01:16;;;;;;;7.05;0.80;;;3.90;94.00;;;;;;5047623;28;20366;-65
2021/12/08 06:03:45;;;;;;;7.05;1.00;;;3.90;94.10;;;;;;5077239;28;20036;-65
2021/12/08 06:06:12;;;;;;;5.50;0.85;;;3.90;94.10;;;;;;5039195;28;20051;-65
2021/12/08 06:08:39;;;;;;;8.05;1.23;;;3.90;94.10;;;;;;5045753;28;20017;-66
2021/12/08 06:11:09;;;;;;;9.02;1.15;;;4.00;94.20;;;;;;5035554;28;20143;-65
2021/12/08 06:13:37;;;;;;;5.28;0.80;;;4.10;94.20;;;;;;5037708;28;20017;-65
2021/12/08 06:16:05;;;;;;;6.50;0.93;;;4.10;94.00;;;;;;5044832;28;20044;-65
2021/12/08 06:18:37;;;;;;;7.63;0.95;;;4.20;94.10;;;;;;5041172;28;20395;-65
2021/12/08 06:21:05;;;;;;;4.22;0.85;;;4.30;94.20;;;;;;5045051;28;20505;-65
2021/12/08 06:23:32;;;;;;;4.88;1.00;;;4.30;94.20;;;;;;5041104;28;20022;-64
2021/12/08 06:25:59;;;;;;;8.15;1.13;;;4.40;94.20;;;;;;5047016;28;20040;-65
2021/12/08 06:28:25;;;;;;;8.15;1.05;;;4.40;94.30;;;;;;5040433;28;20025;-65
2021/12/08 06:30:52;;;;;;;4.38;0.95;;;4.50;94.30;;;;;;5037858;28;20025;-65
2021/12/08 06:33:20;;;;;;;7.85;1.10;;;4.50;94.10;;;;;;5041168;28;20029;-64
2021/12/08 06:35:53;;;;;;;5.70;0.80;;;4.60;94.20;;;;;;5038431;28;20025;-65
2021/12/08 06:38:19;;;;;;;6.25;0.90;;;4.60;94.30;;;;;;5048130;28;20021;-65
2021/12/08 06:41:05;;;;;;;7.10;1.10;;;4.70;94.30;;;;;;5036319;28;20029;-65
2021/12/08 06:43:37;;;;;;;4.18;0.80;;;4.70;94.30;;;;;;5034645;28;20032;-65
2021/12/08 06:46:04;;;;;;;6.95;0.90;;;4.70;94.20;;;;;;5036280;28;20120;-64
2021/12/08 06:48:37;;;;;;;3.90;0.75;;;4.60;94.30;;;;;;5045683;28;20045;-66
2021/12/08 06:51:10;;;;;;;4.93;1.00;;;4.60;94.30;;;;;;5048790;28;20643;-65
2021/12/08 06:53:37;;;;;;;6.10;0.90;;;4.60;94.30;;;;;;5049340;28;20013;-65
2021/12/08 06:56:13;;;;;;;4.88;0.85;;;4.60;94.70;;;;;;5048488;28;20513;-65
2021/12/08 06:58:41;;;;;;;3.47;0.80;;;4.60;94.40;;;;;;5049508;28;20024;-64
2021/12/08 07:01:30;;;;;;;5.88;1.10;;;4.50;94.30;;;;;;5049637;28;20037;-64
2021/12/08 07:06:56;;;;;;;5.32;0.90;;;4.50;94.40;;;;;;5059490;28;20021;-65
2021/12/08 07:09:33;;;;;;;5.43;0.90;;;4.40;94.40;;;;;;5035908;28;20029;-64
2021/12/08 07:12:08;;;;;;;7.35;1.70;;;4.40;94.40;;;;;;5034552;28;20076;-64
2021/12/08 07:14:35;;;;;;;8.45;2.20;;;4.30;94.40;;;;;;5067719;28;20024;-64
2021/12/08 07:17:06;;;;;;;3.78;0.95;;;4.30;94.50;;;;;;5038183;28;20025;-64
2021/12/08 07:19:51;;;;;;;5.82;0.88;;;4.20;94.50;;;;;;5037647;28;20030;-64
2021/12/08 07:22:24;;;;;;;6.35;0.80;;;4.20;94.50;;;;;;5037599;28;20117;-64
2021/12/08 07:24:52;;;;;;;4.18;0.85;;;4.20;94.50;;;;;;5037377;28;20028;-64
2021/12/08 07:27:23;;;;;;;6.90;0.73;;;4.10;94.50;;;;;;5035132;28;20057;-64
2021/12/08 07:29:49;;;;;;;7.15;0.75;;;4.10;94.60;;;;;;5037069;28;20054;-64
2021/12/08 07:32:32;;;;;;;6.32;1.00;;;4.10;94.80;;;;;;5050605;28;20021;-64
2021/12/08 07:35:06;;;;;;;4.70;1.10;;;4.20;94.90;;;;;;5047220;28;20027;-64
2021/12/08 07:37:33;;;;;;;4.00;0.93;;;4.30;95.00;;;;;;5038136;28;20040;-65
2021/12/08 07:40:18;;;;;;;6.65;1.80;;;4.30;95.10;;;;;;5035473;28;20025;-65
2021/12/08 07:42:54;;;;;;;7.15;1.38;;;4.40;95.10;;;;;;5037214;28;20028;-65
2021/12/08 07:45:24;;;;;;;4.13;0.90;;;4.50;95.10;;;;;;5034876;28;20037;-65
2021/12/08 07:47:52;;;;;;;4.77;0.90;;;4.40;94.90;;;;;;5036925;28;20025;-65
2021/12/08 07:50:27;;;;;;;8.27;1.05;;;4.30;94.70;;;;;;5036460;28;20045;-65
2021/12/08 07:52:53;;;;;;;8.35;1.15;;;4.30;94.60;;;;;;5039287;28;20029;-65
2021/12/08 07:55:29;;;;;;;6.35;1.55;;;4.20;94.50;;;;;;5037391;28;20041;-65
2021/12/08 07:57:57;;;;;;;7.82;1.23;;;4.10;94.40;;;;;;5040174;28;20037;-65
2021/12/08 08:00:37;;;;;;;9.27;1.17;;;4.10;94.40;;;;;;5059123;28;20040;-65
2021/12/08 08:03:05;;;;;;;6.65;1.70;;;4.00;94.30;;;;;;5032941;28;20029;-65
2021/12/08 08:05:32;;;;;;;6.72;1.25;;;4.00;94.30;;;;;;5047486;28;20045;-65
2021/12/08 08:08:03;;;;;;;6.25;1.42;;;4.00;94.30;;;;;;5044517;28;20073;-65
2021/12/08 08:10:32;;;;;;;5.55;1.90;;;4.00;94.30;;;;;;5040803;28;20501;-65
2021/12/08 08:13:01;;;;;;;9.05;1.40;;;4.10;94.30;;;;;;5036363;28;20510;-65
2021/12/08 08:15:31;;;;;;;3.88;1.08;;;4.20;94.30;;;;;;5035076;28;20036;-64
2021/12/08 08:17:57;;;;;;;6.50;1.40;;;4.40;94.00;;;;;;5033645;28;20037;-65
2021/12/08 08:20:33;;;;;;;3.47;1.00;;;4.50;93.50;;;;;;5046962;28;20033;-65
2021/12/08 08:23:00;;;;;;;7.95;1.27;;;5.10;92.60;;;;;;5046098;28;20021;-65
2021/12/08 08:25:39;;;;;;;8.68;1.42;;;5.20;92.20;;;;;;5044663;28;20025;-65
2021/12/08 08:28:06;;;;;;;3.60;1.23;;;5.30;92.10;;;;;;5043200;28;20021;-64
2021/12/08 08:30:39;;;;;;;6.35;1.33;;;5.30;92.50;;;;;;5041379;28;20029;-64
2021/12/08 08:33:05;;;;;;;6.70;1.20;;;5.40;92.40;;;;;;5046640;28;20044;-65
2021/12/08 08:35:54;;;;;;;4.68;1.08;;;5.40;92.40;;;;;;5042895;28;20025;-64
2021/12/08 08:38:26;;;;;;;4.65;1.23;;;5.50;92.50;;;;;;5049524;28;20033;-64
2021/12/08 08:40:57;;;;;;;4.38;1.00;;;5.70;92.40;;;;;;5046378;28;20035;-65
2021/12/08 08:43:29;;;;;;;5.38;1.40;;;5.70;92.40;;;;;;5040621;28;20033;-65
2021/12/08 08:46:07;;;;;;;5.85;1.40;;;5.70;92.30;;;;;;5035926;28;20625;-65
2021/12/08 08:48:43;;;;;;;7.68;1.50;;;5.70;92.20;;;;;;5036028;28;20458;-65
2021/12/08 08:51:21;;;;;;;4.70;1.60;;;5.70;91.90;;;;;;5047961;28;20036;-65
2021/12/08 08:53:50;;;;;;;4.88;1.67;;;5.80;92.00;;;;;;5046824;28;20079;-65
2021/12/08 08:56:21;;;;;;;5.07;1.88;;;5.90;91.90;;;;;;5036186;28;20037;-65
2021/12/08 08:58:52;;;;;;;7.65;2.03;;;6.10;91.80;;;;;;5035387;28;20139;-65
2021/12/08 09:01:38;;;;;;;7.13;2.67;;;6.20;92.10;;;;;;5039541;28;20091;-65
2021/12/08 09:04:24;;;;;;;8.23;2.17;;;6.30;91.70;;;;;;5035641;28;20029;-65
2021/12/08 09:06:53;;;;;;;6.32;2.35;;;6.40;91.70;;;;;;5039494;28;20040;-64
2021/12/08 09:09:23;;;;;;;6.47;2.40;;;6.50;91.80;;;;;;5046707;28;20029;-65
2021/12/08 09:12:12;;;;;;;7.03;2.08;;;6.50;91.80;;;;;;5056345;28;20051;-65
2021/12/08 09:14:44;;;;;;;7.30;1.70;;;6.50;91.80;;;;;;5046906;28;20021;-65
2021/12/08 09:17:23;;;;;;;7.15;1.60;;;6.40;91.80;;;;;;5045829;28;20028;-65
2021/12/08 09:20:03;;;;;;;5.88;1.65;;;6.30;91.90;;;;;;5037119;28;20396;-65
2021/12/08 09:22:41;;;;;;;5.97;1.80;;;6.20;91.80;;;;;;5035280;28;20408;-66
2021/12/08 09:25:16;;;;;;;6.03;1.50;;;6.10;91.50;;;;;;5035136;28;20500;-65
2021/12/08 09:27:51;;;;;;;4.93;1.40;;;6.00;91.50;;;;;;5032631;28;20033;-65
2021/12/08 09:30:32;;;;;;;5.28;1.35;;;6.00;91.60;;;;;;5045663;28;20504;-65
2021/12/08 09:33:07;;;;;;;5.65;1.50;;;6.00;91.60;;;;;;5034367;28;20055;-65
2021/12/08 09:35:42;;;;;;;8.18;1.52;;;6.00;91.60;;;;;;5046735;28;20115;-65
2021/12/08 09:38:36;;;;;;;5.45;1.25;;;6.10;91.60;;;;;;5047697;28;20039;-66
2021/12/08 09:41:15;;;;;;;5.43;1.67;;;6.10;91.30;;;;;;5033929;28;20072;-65
2021/12/08 09:44:07;;;;;;;4.57;1.80;;;6.20;91.20;;;;;;5044425;28;20087;-65
2021/12/08 09:46:43;;;;;;;6.15;1.65;;;6.60;91.00;;;;;;5042099;28;20025;-65
2021/12/08 09:49:12;;;;;;;7.63;1.67;;;7.10;90.60;;;;;;5035208;28;20118;-65
2021/12/08 09:51:38;;;;;;;4.68;1.30;;;7.50;90.00;;;;;;5034856;28;20091;-65
2021/12/08 09:54:05;;;;;;;5.47;1.65;;;7.50;90.00;;;;;;5030854;28;20074;-65
2021/12/08 09:56:34;;;;;;;6.22;1.48;;;7.40;90.10;;;;;;5035083;28;20500;-65
2021/12/08 09:59:03;;;;;;;7.28;1.23;;;7.20;90.00;;;;;;5035771;28;20022;-65
2021/12/08 10:01:29;;;;;;;7.18;1.40;;;7.10;89.80;;;;;;5047285;28;20025;-65
2021/12/08 10:03:56;;;;;;;6.15;1.20;;;6.90;89.80;;;;;;5048448;28;20083;-65
2021/12/08 10:06:24;;;;;;;7.47;1.50;;;6.80;90.00;;;;;;5032511;28;20061;-65
2021/12/08 10:08:57;;;;;;;7.32;1.30;;;6.80;90.00;;;;;;5061758;28;20075;-65
2021/12/08 10:11:24;;;;;;;4.60;1.25;;;6.90;89.80;;;;;;5034782;28;20564;-65
2021/12/08 10:13:50;;;;;;;6.90;1.60;;;7.00;89.60;;;;;;5034570;28;20021;-65
2021/12/08 10:16:16;;;;;;;6.70;3.00;;;7.40;89.60;;;;;;5037354;28;20105;-65
2021/12/08 10:18:43;;;;;;;8.85;7.95;;;8.60;88.20;;;;;;5035547;28;20013;-66
2021/12/08 10:21:10;;;;;;;10.35;9.30;;;10.90;81.20;;;;;;5045872;28;20024;-66
2021/12/08 10:23:42;;;;;;;11.75;10.65;;;13.20;75.00;;;;;;5058741;28;20027;-66
2021/12/08 10:26:32;;;;;;;10.43;9.43;;;15.20;69.60;;;;;;5048870;28;20040;-66
2021/12/08 10:29:00;;;;;;;9.40;8.50;;;16.90;63.30;;;;;;5041143;28;21377;-66
2021/12/08 10:31:31;;;;;;;9.52;8.63;;;18.10;61.50;;;;;;5043738;28;20038;-66
2021/12/08 10:34:09;;;;;;;;;;;19.00;57.60;;;;;;5044118;28;20570;-66
2021/12/08 10:36:46;;;;;;;8.30;6.95;;;19.10;55.90;;;;;;5038291;28;19962;-66
2021/12/08 10:39:20;;;;;;;8.32;7.45;;;19.20;58.10;;;;;;5034660;28;20412;-66
2021/12/08 10:42:03;;;;;;;9.05;8.20;;;20.40;56.30;;;;;;5036138;28;20063;-66
2021/12/08 10:44:49;;;;;;;8.32;7.63;;;21.30;51.00;;;;;;5066934;28;20024;-66
2021/12/08 10:47:48;;;;;;;9.98;8.98;;;21.80;50.00;;;;;;5053503;28;20079;-66
2021/12/08 10:55:55;;;;;;;7.75;6.00;;;23.90;47.10;;;;;;5039483;28;20060;-66
2021/12/08 10:58:27;;;;;;;6.75;5.30;;;24.40;45.90;;;;;;5037885;28;20037;-66
2021/12/08 11:00:55;;;;;;;6.55;4.32;;;24.70;44.40;;;;;;5049250;28;20029;-66
2021/12/08 11:03:21;;;;;;;6.15;3.70;;;24.90;44.90;;;;;;5035830;28;20033;-67
2021/12/08 11:06:00;;;;;;;6.05;3.47;;;25.00;44.70;;;;;;5048883;28;20510;-66
2021/12/08 11:08:44;;;;;;;6.32;3.40;;;24.70;42.10;;;;;;5037739;28;20034;-67
2021/12/08 11:11:20;;;;;;;5.95;2.70;;;24.90;42.20;;;;;;5047529;28;20033;-67
2021/12/08 11:13:48;;;;;;;6.95;4.85;;;24.70;44.80;;;;;;5039725;28;20070;-67
2021/12/08 11:16:18;;;;;;;7.22;2.95;;;25.80;44.90;;;;;;5042385;28;20476;-67
2021/12/08 11:18:49;;;;;;;7.75;4.55;;;26.20;44.50;;;;;;5048137;28;20270;-67
2021/12/08 11:21:31;;;;;;;5.88;4.50;;;27.20;40.20;;;;;;5034412;28;20065;-67
2021/12/08 11:23:59;;;;;;;6.88;5.63;;;27.70;40.70;;;;;;5034295;28;20102;-67
2021/12/08 11:26:29;;;;;;;7.07;5.65;;;27.70;38.90;;;;;;5037565;28;20037;-66
2021/12/08 11:29:04;;;;;;;;;;;27.80;40.00;;;;;;5045029;28;20033;-67
2021/12/08 11:31:33;;;;;;;7.57;6.85;;;27.90;38.10;;;;;;5041666;28;19963;-66
2021/12/08 11:34:01;;;;;;;7.60;6.88;;;28.00;38.40;;;;;;5042762;28;20032;-67
2021/12/08 11:36:30;;;;;;;6.97;6.28;;;28.10;39.50;;;;;;5050252;28;20048;-67
2021/12/08 11:38:57;;;;;;;8.55;6.00;;;28.20;40.00;;;;;;5063808;28;20082;-67
2021/12/08 11:41:27;;;;;;;7.35;4.65;;;28.40;40.50;;;;;;5037534;28;20092;-67
2021/12/08 11:43:53;;;;;;;;;;;28.60;39.20;;;;;;5048880;28;20442;-67
2021/12/08 11:46:20;;;;;;;6.28;2.75;;;28.90;38.30;;;;;;5042859;28;19916;-67
2021/12/08 11:49:05;;;;;;;5.63;2.80;;;29.00;37.70;;;;;;5049430;28;20095;-67
2021/12/08 11:52:15;;;;;;;5.40;2.35;;;29.10;37.30;;;;;;5036403;28;20455;-67
2021/12/08 11:55:00;;;;;;;6.40;2.17;;;29.30;36.70;;;;;;5036965;28;20063;-67
2021/12/08 11:57:36;;;;;;;5.85;1.98;;;29.40;37.90;;;;;;5047019;28;20025;-67
2021/12/08 12:00:24;;;;;;;4.53;1.58;;;29.60;38.50;;;;;;5064294;28;20033;-66
2021/12/08 12:03:02;;;;;;;4.95;1.50;;;29.70;35.20;;;;;;5049160;28;20048;-65
2021/12/08 12:05:36;;;;;;;4.55;1.42;;;29.70;36.20;;;;;;5037425;28;20030;-67
2021/12/08 12:08:05;;;;;;;5.65;1.10;;;29.70;33.90;;;;;;5037791;28;20053;-65
2021/12/08 12:10:35;;;;;;;5.90;1.20;;;28.10;35.30;;;;;;5036989;28;20069;-66
2021/12/08 12:13:08;;;;;;;4.57;1.20;;;26.90;37.50;;;;;;5040119;28;20029;-66
2021/12/08 12:15:35;;;;;;;6.63;1.42;;;24.60;38.10;;;;;;5043667;28;20025;-65
2021/12/08 12:18:01;;;;;;;5.68;1.23;;;23.50;38.20;;;;;;5042714;28;20029;-66
2021/12/08 12:20:42;;;;;;;3.78;1.17;;;21.70;39.50;;;;;;5062786;28;20064;-66
2021/12/08 12:23:26;;;;;;;4.55;1.10;;;20.80;41.90;;;;;;5058081;28;20025;-66
2021/12/08 12:25:52;;;;;;;7.13;1.48;;;20.20;45.00;;;;;;5045229;28;20032;-64
2021/12/08 12:28:50;;;;;;;5.30;1.10;;;19.50;48.20;;;;;;5042336;28;20022;-65
2021/12/08 12:31:28;;;;;;;5.00;1.20;;;18.70;48.70;;;;;;5038437;28;20026;-66
2021/12/08 12:33:54;;;;;;;7.60;1.17;;;18.30;50.40;;;;;;5045454;28;20108;-65
2021/12/08 12:36:25;;;;;;;5.97;1.27;;;18.00;48.90;;;;;;5035771;28;20024;-65
2021/12/08 12:38:52;;;;;;;8.70;1.30;;;17.80;49.50;;;;;;5050910;28;20029;-65
2021/12/08 12:41:32;;;;;;;7.68;1.20;;;17.40;52.00;;;;;;5048732;28;20112;-65
2021/12/08 12:44:23;;;;;;;4.90;1.05;;;17.20;52.10;;;;;;5036903;28;20112;-66
2021/12/08 12:47:04;;;;;;;7.88;1.33;;;17.30;54.00;;;;;;5042024;28;20036;-65
2021/12/08 12:49:32;;;;;;;6.80;1.10;;;18.70;51.60;;;;;;5044094;28;20124;-65
2021/12/08 12:52:00;;;;;;;5.40;1.20;;;21.70;44.70;;;;;;5044980;28;20107;-66
2021/12/08 12:54:27;;;;;;;4.63;1.10;;;23.80;42.20;;;;;;5039758;28;20019;-66
2021/12/08 12:56:54;;;;;;;7.80;1.10;;;24.40;41.60;;;;;;5045326;28;20029;-65
2021/12/08 12:59:23;;;;;;;5.63;1.10;;;24.60;39.00;;;;;;5042655;28;20112;-66
2021/12/08 13:02:09;;;;;;;6.22;1.20;;;25.40;38.60;;;;;;5046828;28;20051;-66
2021/12/08 13:04:50;;;;;;;4.57;1.10;;;26.40;36.20;;;;;;5046334;28;20035;-66
2021/12/08 13:07:16;;;;;;;5.53;1.20;;;26.90;35.10;;;;;;5047691;28;20507;-66
2021/12/08 13:09:52;;;;;;;6.13;1.10;;;27.20;34.80;;;;;;5046358;28;20025;-66
2021/12/08 13:12:26;;;;;;;5.05;1.30;;;27.60;34.70;;;;;;5046909;28;20028;-66
2021/12/08 13:15:19;;;;;;;3.85;1.05;;;27.80;33.90;;;;;;5032660;28;20018;-66
2021/12/08 13:18:23;;;;;;;7.10;1.20;;;26.20;29.30;;;;;;5047789;28;20574;-66
2021/12/08 13:20:59;;;;;;;4.70;1.20;;;25.50;33.70;;;;;;5031663;28;20046;-65
2021/12/08 13:23:30;;;;;;;6.15;1.30;;;26.20;34.40;;;;;;5041376;28;20148;-65
2021/12/08 13:26:07;;;;;;;5.90;1.27;;;27.00;34.20;;;;;;5038078;28;20024;-65
2021/12/08 13:28:52;;;;;;;6.45;1.20;;;27.40;34.60;;;;;;5040784;28;20081;-65
2021/12/08 13:31:38;;;;;;;5.00;1.10;;;27.90;35.00;;;;;;5032450;28;20060;-66
2021/12/08 13:34:10;;;;;;;4.80;1.10;;;28.00;33.10;;;;;;5032963;28;20107;-66
2021/12/08 13:36:36;;;;;;;5.68;1.10;;;26.70;34.30;;;;;;5035631;28;20037;-66
2021/12/08 13:39:29;;;;;;;3.78;0.98;;;25.40;33.50;;;;;;5037781;28;20025;-66
2021/12/08 13:41:57;;;;;;;3.45;0.90;;;24.10;35.90;;;;;;5034073;28;20068;-66
2021/12/08 13:44:35;;;;;;;6.35;1.13;;;24.40;38.00;;;;;;5044548;28;20029;-66
2021/12/08 13:47:23;;;;;;;14.25;1.42;;;25.30;37.60;;;;;;5030357;28;20025;-66
2021/12/08 13:49:59;;;;;;;5.88;1.20;;;24.70;37.70;;;;;;5020710;28;20171;-65
2021/12/08 13:52:49;;;;;;;4.28;1.00;;;23.50;39.10;;;;;;5031193;28;20022;-65
2021/12/08 13:55:18;;;;;;;5.38;1.10;;;23.20;39.30;;;;;;5023716;28;20120;-65
2021/12/08 13:57:47;;;;;;;4.70;1.00;;;22.90;38.90;;;;;;5033736;28;20017;-65
2021/12/08 14:00:24;;;;;;;4.55;1.20;;;23.20;38.30;;;;;;5030867;28;20129;-65
2021/12/08 14:03:05;;;;;;;4.32;1.10;;;23.80;38.40;;;;;;5032133;28;20067;-65
2021/12/08 14:05:37;;;;;;;4.15;1.10;;;24.00;37.80;;;;;;5034258;28;20026;-65
2021/12/08 14:08:13;;;;;;;4.70;1.00;;;22.60;38.00;;;;;;5051486;28;20024;-65